Time;durP1;ratioP1;P1;durP2;ratioP2;P2;SDS_P1;SDS_P2;PMS_P1;PMS_P2;Temp;Humidity;BMP_temperature;BMP_pressure;BME280_temperature;BME280_humidity;BME280_pressure;Samples;Min_cycle;Max_cycle;Signal;HPM_P1;HPM_P2
2022/10/23 00:01:34;;;;;;;2.17;0.90;;;12.90;99.90;;;;;;5016359;28;20033;-72
2022/10/23 00:04:03;;;;;;;3.55;0.90;;;12.60;99.90;;;;;;5016008;28;20498;-72
2022/10/23 00:06:30;;;;;;;4.25;1.10;;;12.60;99.90;;;;;;5016349;28;20030;-72
2022/10/23 00:08:56;;;;;;;3.78;1.13;;;12.50;99.90;;;;;;5016093;28;20036;-72
2022/10/23 00:11:28;;;;;;;5.55;1.40;;;12.60;99.90;;;;;;5015930;28;20113;-72
2022/10/23 00:13:56;;;;;;;2.80;1.00;;;12.70;99.90;;;;;;5016030;28;20033;-72
2022/10/23 00:16:21;;;;;;;2.30;0.90;;;12.60;99.90;;;;;;5015782;28;20108;-72
2022/10/23 00:18:47;;;;;;;2.28;1.10;;;12.60;99.90;;;;;;5016091;28;20030;-72
2022/10/23 00:21:14;;;;;;;2.83;1.08;;;12.60;99.90;;;;;;5015904;28;20075;-72
2022/10/23 00:23:40;;;;;;;2.88;1.25;;;12.70;99.90;;;;;;5015827;28;20370;-72
2022/10/23 00:26:07;;;;;;;4.45;1.50;;;12.60;99.90;;;;;;5015774;28;20025;-72
2022/10/23 00:28:33;;;;;;;2.95;1.10;;;12.50;99.90;;;;;;5015898;28;20026;-72
2022/10/23 00:31:03;;;;;;;2.92;1.15;;;12.50;99.90;;;;;;5015604;28;20041;-72
2022/10/23 00:33:28;;;;;;;3.35;0.82;;;12.50;99.90;;;;;;5015551;28;20037;-72
2022/10/23 00:35:54;;;;;;;5.95;0.93;;;12.60;99.90;;;;;;5015622;28;20032;-72
2022/10/23 00:38:20;;;;;;;3.75;0.93;;;12.60;99.90;;;;;;5015241;28;20030;-72
2022/10/23 00:40:45;;;;;;;2.38;1.02;;;12.40;99.90;;;;;;5015605;28;20033;-72
2022/10/23 00:43:20;;;;;;;2.13;0.82;;;12.50;99.90;;;;;;5015339;28;20097;-72
2022/10/23 00:45:45;;;;;;;2.58;1.00;;;12.60;99.90;;;;;;5015535;28;20037;-72
2022/10/23 00:48:12;;;;;;;5.60;1.27;;;12.80;99.90;;;;;;5015388;28;20026;-72
2022/10/23 00:50:37;;;;;;;4.80;1.88;;;12.90;99.90;;;;;;5015167;28;20045;-72
2022/10/23 00:53:04;;;;;;;6.30;1.15;;;12.90;99.90;;;;;;5015009;28;20480;-72
2022/10/23 00:55:32;;;;;;;3.38;1.48;;;12.80;99.90;;;;;;5015444;28;20026;-72
2022/10/23 00:57:58;;;;;;;3.95;1.58;;;12.80;99.90;;;;;;5015290;28;20084;-72
2022/10/23 01:00:49;;;;;;;3.17;1.50;;;12.70;99.90;;;;;;5015158;28;20044;-72
2022/10/23 01:03:18;;;;;;;4.95;1.80;;;12.60;99.90;;;;;;5014994;28;20451;-72
2022/10/23 01:06:02;;;;;;;4.75;1.52;;;12.60;99.90;;;;;;5015108;28;20022;-72
2022/10/23 01:08:30;;;;;;;4.40;1.83;;;12.60;99.90;;;;;;5014347;28;20435;-72
2022/10/23 01:11:17;;;;;;;4.95;2.30;;;12.40;99.90;;;;;;5015234;28;20061;-72
2022/10/23 01:14:20;;;;;;;3.10;1.48;;;12.40;99.90;;;;;;5013441;28;20430;-72
2022/10/23 01:16:55;;;;;;;4.47;1.98;;;12.50;99.90;;;;;;5014748;28;20405;-72
2022/10/23 01:19:47;;;;;;;4.50;1.80;;;12.50;99.90;;;;;;5014890;28;20030;-72
2022/10/23 01:22:34;;;;;;;4.53;1.33;;;12.50;99.90;;;;;;5014376;28;20053;-72
2022/10/23 01:25:11;;;;;;;3.13;1.52;;;12.50;99.90;;;;;;5014610;28;20038;-72
2022/10/23 01:27:43;;;;;;;4.55;1.02;;;12.50;99.90;;;;;;5014724;28;20026;-72
2022/10/23 01:30:13;;;;;;;3.10;1.10;;;12.70;99.90;;;;;;5014504;28;20030;-72
2022/10/23 01:32:49;;;;;;;1.83;1.02;;;12.80;99.90;;;;;;5014291;28;20065;-72
2022/10/23 01:35:20;;;;;;;3.08;1.30;;;12.90;99.90;;;;;;5014501;28;20105;-72
2022/10/23 01:37:52;;;;;;;4.72;1.60;;;12.70;99.90;;;;;;5014548;28;20484;-72
2022/10/23 01:40:27;;;;;;;4.40;1.65;;;12.60;99.90;;;;;;5014014;28;20029;-72
2022/10/23 01:42:58;;;;;;;4.43;1.35;;;12.70;99.90;;;;;;5014332;28;20037;-72
2022/10/23 01:45:32;;;;;;;2.60;1.13;;;12.70;99.90;;;;;;5013909;28;20037;-72
2022/10/23 01:47:59;;;;;;;6.97;1.63;;;12.80;99.90;;;;;;5014448;28;20101;-72
2022/10/23 01:50:27;;;;;;;3.92;1.38;;;12.70;99.90;;;;;;5013504;28;20038;-72
2022/10/23 01:52:52;;;;;;;4.60;1.10;;;12.70;99.90;;;;;;5013988;28;20038;-72
2022/10/23 01:55:19;;;;;;;3.63;1.70;;;12.70;99.90;;;;;;5014071;28;20503;-72
2022/10/23 01:57:47;;;;;;;3.00;1.05;;;12.80;99.90;;;;;;5013961;28;20037;-72
2022/10/23 02:00:16;;;;;;;9.23;1.45;;;12.70;99.90;;;;;;5014179;28;20451;-73
2022/10/23 02:02:43;;;;;;;3.13;1.38;;;12.70;99.90;;;;;;5014160;28;20030;-72
2022/10/23 02:05:21;;;;;;;3.72;1.08;;;12.80;99.90;;;;;;5013729;28;20030;-72
2022/10/23 02:07:47;;;;;;;2.38;1.00;;;12.80;99.90;;;;;;5013711;28;20034;-72
2022/10/23 02:10:14;;;;;;;2.45;0.90;;;12.80;99.90;;;;;;5013391;28;20030;-72
2022/10/23 02:12:58;;;;;;;2.45;1.08;;;12.80;99.90;;;;;;5012445;28;20072;-72
2022/10/23 02:15:53;;;;;;;4.28;1.23;;;12.80;99.90;;;;;;5013493;28;20057;-72
2022/10/23 02:18:43;;;;;;;4.85;1.33;;;12.90;99.90;;;;;;5012895;28;20400;-72
2022/10/23 02:21:20;;;;;;;4.30;1.30;;;12.90;99.90;;;;;;5013204;28;20026;-72
2022/10/23 02:23:55;;;;;;;3.08;1.23;;;12.80;99.90;;;;;;5013193;28;20164;-72
2022/10/23 02:26:30;;;;;;;4.72;1.05;;;12.70;99.90;;;;;;5012783;28;20108;-72
2022/10/23 02:29:46;;;;;;;4.95;1.20;;;12.80;99.90;;;;;;5012699;28;20022;-72
2022/10/23 02:32:13;;;;;;;5.22;1.08;;;12.70;99.90;;;;;;5015289;28;20037;-72
2022/10/23 02:34:38;;;;;;;4.00;1.33;;;12.70;99.90;;;;;;5011374;28;20045;-72
2022/10/23 02:37:04;;;;;;;2.95;1.30;;;12.70;99.90;;;;;;5012235;28;20052;-72
2022/10/23 02:39:30;;;;;;;3.88;1.60;;;12.70;99.90;;;;;;5012504;28;20030;-72
2022/10/23 02:42:33;;;;;;;3.92;1.35;;;12.70;99.90;;;;;;5012838;28;20026;-72
2022/10/23 02:45:14;;;;;;;3.75;1.90;;;12.70;99.90;;;;;;5012606;28;20088;-72
2022/10/23 02:47:51;;;;;;;2.03;1.02;;;12.70;99.90;;;;;;5012316;28;20034;-72
2022/10/23 02:50:39;;;;;;;4.15;1.13;;;12.80;99.90;;;;;;5012363;28;20029;-72
2022/10/23 02:53:26;;;;;;;3.42;0.95;;;12.80;99.90;;;;;;5012607;28;20117;-72
2022/10/23 02:55:52;;;;;;;1.95;1.08;;;12.70;99.90;;;;;;5012371;28;20034;-72
2022/10/23 02:58:42;;;;;;;4.20;1.52;;;12.80;99.90;;;;;;5012529;28;20088;-72
2022/10/23 03:01:12;;;;;;;1.90;0.95;;;12.70;99.90;;;;;;5002866;28;20554;-73
2022/10/23 03:03:44;;;;;;;2.22;1.00;;;12.70;99.90;;;;;;4988800;28;20034;-73
2022/10/23 03:06:10;;;;;;;4.03;1.92;;;12.70;99.90;;;;;;4987314;28;20562;-73
2022/10/23 03:08:53;;;;;;;2.50;1.02;;;12.70;99.90;;;;;;4987256;28;20031;-73
2022/10/23 03:11:18;;;;;;;2.10;0.82;;;12.80;99.90;;;;;;4987645;28;20501;-74
2022/10/23 03:13:44;;;;;;;4.15;1.75;;;12.70;99.90;;;;;;4987967;28;20038;-73
2022/10/23 03:16:10;;;;;;;4.95;1.00;;;12.60;99.90;;;;;;4982169;28;144045;-73
2022/10/23 03:18:35;;;;;;;2.25;1.20;;;12.70;99.90;;;;;;4986198;28;20081;-73
2022/10/23 03:21:01;;;;;;;3.88;1.35;;;12.70;99.90;;;;;;4985886;28;20030;-74
2022/10/23 03:23:27;;;;;;;2.45;0.93;;;12.70;99.90;;;;;;4987908;28;20068;-73
2022/10/23 03:25:54;;;;;;;3.03;1.20;;;12.70;99.90;;;;;;4989158;28;20034;-73
2022/10/23 03:28:20;;;;;;;3.58;1.45;;;12.70;99.90;;;;;;4989101;28;20022;-74
2022/10/23 03:30:46;;;;;;;3.05;1.15;;;12.70;99.90;;;;;;4989230;28;20050;-73
2022/10/23 03:33:12;;;;;;;2.80;1.02;;;12.80;99.90;;;;;;4989236;28;20062;-73
2022/10/23 03:35:38;;;;;;;5.85;1.52;;;12.90;99.90;;;;;;4989091;28;20026;-73
2022/10/23 03:38:03;;;;;;;2.10;0.98;;;12.90;99.90;;;;;;4989071;28;20041;-73
2022/10/23 03:40:29;;;;;;;1.65;0.80;;;12.90;99.90;;;;;;4988634;28;20071;-73
2022/10/23 03:42:55;;;;;;;2.03;1.02;;;12.90;99.90;;;;;;4988696;28;20018;-73
2022/10/23 03:45:20;;;;;;;3.15;1.00;;;12.90;99.90;;;;;;4987823;28;20096;-73
2022/10/23 03:47:47;;;;;;;3.08;1.35;;;12.90;99.90;;;;;;4986156;28;20551;-73
2022/10/23 03:50:13;;;;;;;4.78;1.83;;;13.00;99.90;;;;;;4985592;28;20022;-74
2022/10/23 03:52:39;;;;;;;3.75;1.83;;;12.90;99.90;;;;;;4985504;28;20421;-73
2022/10/23 03:55:05;;;;;;;3.55;1.38;;;12.70;99.90;;;;;;4986371;28;20026;-73
2022/10/23 03:57:31;;;;;;;3.95;1.08;;;12.70;99.90;;;;;;4988827;28;20034;-73
2022/10/23 03:59:57;;;;;;;4.38;1.15;;;12.60;99.90;;;;;;4988338;28;20026;-73
2022/10/23 04:02:22;;;;;;;4.68;1.35;;;12.60;99.90;;;;;;4988262;28;20513;-73
2022/10/23 04:04:48;;;;;;;6.25;1.42;;;12.60;99.90;;;;;;4988170;28;20030;-73
2022/10/23 04:07:14;;;;;;;4.57;1.90;;;12.70;99.90;;;;;;4988636;28;20127;-74
2022/10/23 04:09:39;;;;;;;5.07;1.05;;;12.60;99.90;;;;;;4988427;28;20070;-73
2022/10/23 04:12:06;;;;;;;2.67;1.23;;;12.60;99.90;;;;;;4988651;28;20031;-73
2022/10/23 04:14:31;;;;;;;2.60;1.58;;;12.60;99.90;;;;;;4991702;28;20121;-73
2022/10/23 04:16:57;;;;;;;5.22;1.30;;;12.60;99.90;;;;;;4991812;28;20201;-74
2022/10/23 04:19:23;;;;;;;5.30;1.38;;;12.70;99.90;;;;;;4992133;28;20030;-73
2022/10/23 04:21:48;;;;;;;1.98;1.08;;;12.60;99.90;;;;;;4992361;28;20037;-74
2022/10/23 04:24:14;;;;;;;3.80;1.33;;;12.70;99.90;;;;;;4992361;28;20021;-74
2022/10/23 04:26:40;;;;;;;6.93;1.67;;;12.60;99.90;;;;;;4991797;28;20440;-73
2022/10/23 04:29:06;;;;;;;2.47;1.13;;;12.60;99.90;;;;;;4991510;28;20034;-73
2022/10/23 04:31:31;;;;;;;3.95;1.40;;;12.50;99.90;;;;;;4991832;28;20030;-73
2022/10/23 04:33:57;;;;;;;2.72;1.10;;;12.50;99.90;;;;;;4991181;28;20125;-73
2022/10/23 04:36:22;;;;;;;1.88;1.02;;;12.60;99.90;;;;;;4991424;28;20026;-73
2022/10/23 04:38:48;;;;;;;5.32;1.83;;;12.50;99.90;;;;;;4991336;28;20034;-73
2022/10/23 04:41:14;;;;;;;2.72;1.20;;;12.60;99.90;;;;;;4991477;28;20034;-73
2022/10/23 04:43:39;;;;;;;3.28;1.60;;;12.60;99.90;;;;;;4991596;28;20022;-73
2022/10/23 04:46:05;;;;;;;3.22;1.80;;;12.60;99.90;;;;;;4991271;28;20037;-73
2022/10/23 04:48:31;;;;;;;3.13;1.50;;;12.70;99.90;;;;;;4990782;28;20081;-73
2022/10/23 04:50:59;;;;;;;3.92;1.70;;;12.60;99.90;;;;;;4991342;28;20034;-73
2022/10/23 04:53:25;;;;;;;3.85;1.30;;;12.60;99.90;;;;;;4990968;28;20026;-73
2022/10/23 04:55:53;;;;;;;3.10;1.10;;;12.60;99.90;;;;;;4991440;28;20034;-73
2022/10/23 04:58:19;;;;;;;4.80;1.10;;;12.50;99.90;;;;;;4991281;28;20052;-73
2022/10/23 05:00:45;;;;;;;3.47;1.00;;;12.50;99.90;;;;;;4990943;28;20535;-73
2022/10/23 05:03:11;;;;;;;1.58;0.80;;;12.60;99.90;;;;;;4990987;28;20052;-74
2022/10/23 05:05:37;;;;;;;3.65;1.13;;;12.50;99.90;;;;;;5006222;28;20369;-74
2022/10/23 05:08:03;;;;;;;2.42;1.10;;;12.60;99.90;;;;;;4990954;28;20041;-73
2022/10/23 05:10:29;;;;;;;2.45;1.15;;;12.60;99.90;;;;;;4991103;28;20041;-73
2022/10/23 05:12:54;;;;;;;2.30;1.10;;;12.60;99.90;;;;;;4990967;28;20042;-73
2022/10/23 05:15:20;;;;;;;3.20;1.20;;;12.60;99.90;;;;;;4990695;28;20030;-73
2022/10/23 05:17:51;;;;;;;2.83;1.02;;;12.60;99.90;;;;;;4990490;28;20034;-74
2022/10/23 05:20:21;;;;;;;1.80;1.00;;;12.70;99.90;;;;;;4990812;28;20034;-74
2022/10/23 05:22:50;;;;;;;2.28;0.63;;;12.70;99.90;;;;;;4990492;28;20030;-73
2022/10/23 05:25:16;;;;;;;3.85;1.02;;;12.60;99.90;;;;;;4989789;28;20034;-75
2022/10/23 05:27:41;;;;;;;2.25;1.00;;;12.60;99.90;;;;;;4990953;28;20531;-73
2022/10/23 05:30:08;;;;;;;1.95;0.93;;;12.70;99.90;;;;;;4990806;28;20105;-74
2022/10/23 05:32:34;;;;;;;3.95;0.82;;;12.70;99.90;;;;;;4991614;28;20026;-74
2022/10/23 05:35:05;;;;;;;3.80;1.50;;;12.70;99.90;;;;;;4991125;28;20026;-73
2022/10/23 05:37:31;;;;;;;2.95;0.90;;;12.70;99.90;;;;;;4990595;28;20028;-73
2022/10/23 05:39:57;;;;;;;2.03;1.05;;;12.60;99.90;;;;;;4990654;28;20206;-73
2022/10/23 05:42:23;;;;;;;3.15;0.98;;;12.70;99.90;;;;;;4990682;28;20113;-73
2022/10/23 05:44:48;;;;;;;1.95;1.00;;;12.70;99.90;;;;;;4990643;28;20045;-73
2022/10/23 05:47:14;;;;;;;1.80;1.00;;;12.70;99.90;;;;;;4990389;28;20023;-73
2022/10/23 05:49:40;;;;;;;1.92;0.90;;;12.70;99.90;;;;;;4990314;28;20129;-73
2022/10/23 05:52:06;;;;;;;2.28;0.90;;;12.60;99.90;;;;;;4990548;28;20041;-74
2022/10/23 05:54:31;;;;;;;3.75;1.85;;;12.60;99.90;;;;;;4990223;28;20109;-73
2022/10/23 05:56:57;;;;;;;3.38;1.52;;;12.60;99.90;;;;;;4990520;28;20056;-73
2022/10/23 05:59:22;;;;;;;2.67;1.30;;;12.60;99.90;;;;;;4989977;28;20469;-73
2022/10/23 06:01:48;;;;;;;2.58;1.25;;;12.50;99.90;;;;;;4990019;28;20607;-73
2022/10/23 06:04:14;;;;;;;5.00;1.75;;;12.60;99.90;;;;;;4990182;28;20033;-73
2022/10/23 06:06:39;;;;;;;3.35;1.23;;;12.70;99.90;;;;;;4989997;28;20039;-73
2022/10/23 06:09:05;;;;;;;2.70;1.30;;;12.70;99.90;;;;;;4989831;28;20105;-73
2022/10/23 06:11:31;;;;;;;2.40;1.10;;;12.70;99.90;;;;;;4989688;28;20033;-73
2022/10/23 06:13:56;;;;;;;2.45;1.05;;;12.70;99.90;;;;;;4989601;28;20075;-73
2022/10/23 06:16:24;;;;;;;2.55;1.30;;;12.70;99.90;;;;;;5005133;28;20377;-72
2022/10/23 06:18:50;;;;;;;4.30;1.80;;;12.80;99.90;;;;;;4989863;28;20033;-73
2022/10/23 06:21:16;;;;;;;3.97;1.65;;;12.70;99.90;;;;;;4989374;28;20034;-73
2022/10/23 06:23:43;;;;;;;3.20;1.35;;;12.70;99.90;;;;;;4989386;28;20042;-73
2022/10/23 06:26:11;;;;;;;4.60;1.38;;;12.60;99.90;;;;;;4989598;28;20109;-73
2022/10/23 06:28:37;;;;;;;9.10;1.33;;;12.60;99.90;;;;;;4989923;28;20121;-73
2022/10/23 06:31:08;;;;;;;4.25;1.50;;;12.70;99.90;;;;;;4989949;28;20069;-73
2022/10/23 06:33:34;;;;;;;3.90;1.70;;;12.70;99.90;;;;;;4988847;28;20061;-73
2022/10/23 06:35:59;;;;;;;3.75;1.48;;;12.70;99.90;;;;;;4986331;28;20448;-73
2022/10/23 06:38:25;;;;;;;4.28;1.85;;;12.60;99.90;;;;;;4986812;28;20026;-73
2022/10/23 06:40:57;;;;;;;4.00;1.50;;;12.60;99.90;;;;;;4989189;28;20384;-73
2022/10/23 06:43:22;;;;;;;4.32;2.03;;;12.60;99.90;;;;;;4989534;28;20101;-73
2022/10/23 06:45:48;;;;;;;3.20;1.50;;;12.70;99.90;;;;;;4989223;28;20552;-73
2022/10/23 06:48:14;;;;;;;2.85;1.35;;;12.70;99.90;;;;;;4989241;28;20495;-73
2022/10/23 06:50:40;;;;;;;4.40;1.15;;;12.70;99.90;;;;;;4989176;28;20053;-73
2022/10/23 06:53:06;;;;;;;3.95;1.10;;;12.70;99.90;;;;;;4989427;28;20038;-72
2022/10/23 06:55:33;;;;;;;2.00;0.95;;;12.80;99.90;;;;;;4989129;28;20466;-73
2022/10/23 06:57:59;;;;;;;3.17;1.17;;;12.80;99.90;;;;;;4989229;28;20464;-73
2022/10/23 07:00:25;;;;;;;4.38;1.15;;;12.90;99.90;;;;;;4989407;28;20037;-73
2022/10/23 07:02:51;;;;;;;3.17;1.25;;;12.90;99.90;;;;;;4989198;28;20077;-73
2022/10/23 07:05:18;;;;;;;5.65;1.88;;;12.90;99.90;;;;;;4989028;28;20038;-73
2022/10/23 07:07:44;;;;;;;4.03;1.70;;;12.90;99.90;;;;;;4989553;28;20037;-73
2022/10/23 07:10:10;;;;;;;2.88;1.30;;;12.90;99.90;;;;;;4988719;28;20030;-73
2022/10/23 07:12:35;;;;;;;2.55;1.23;;;12.90;99.90;;;;;;4988568;28;20038;-73
2022/10/23 07:15:01;;;;;;;2.47;1.05;;;12.90;99.90;;;;;;4988959;28;20531;-73
2022/10/23 07:17:28;;;;;;;3.83;1.25;;;13.10;99.90;;;;;;4988495;28;20133;-73
2022/10/23 07:19:53;;;;;;;2.67;1.13;;;13.10;99.90;;;;;;4989261;28;20038;-73
2022/10/23 07:22:19;;;;;;;3.63;0.90;;;13.10;99.90;;;;;;4988320;28;20037;-73
2022/10/23 07:24:44;;;;;;;3.63;1.20;;;13.00;99.90;;;;;;4985913;28;20030;-73
2022/10/23 07:27:10;;;;;;;2.47;0.90;;;13.00;99.90;;;;;;4986083;28;20037;-73
2022/10/23 07:29:36;;;;;;;4.43;1.25;;;13.00;99.90;;;;;;4986164;28;20034;-73
2022/10/23 07:32:03;;;;;;;2.90;1.02;;;12.90;99.90;;;;;;4986185;28;20386;-73
2022/10/23 07:34:30;;;;;;;1.98;1.02;;;13.00;99.90;;;;;;4985863;28;20034;-73
2022/10/23 07:36:56;;;;;;;1.83;0.77;;;13.10;99.90;;;;;;4986544;28;20037;-73
2022/10/23 07:39:21;;;;;;;2.17;1.13;;;13.10;99.90;;;;;;4985745;28;20416;-73
2022/10/23 07:41:47;;;;;;;7.10;1.30;;;13.20;99.90;;;;;;4985823;28;20045;-73
2022/10/23 07:44:13;;;;;;;2.35;1.10;;;13.20;99.90;;;;;;4985721;28;20435;-73
2022/10/23 07:46:39;;;;;;;2.35;0.90;;;13.20;99.90;;;;;;5000877;28;20141;-73
2022/10/23 07:49:04;;;;;;;1.58;0.80;;;13.20;99.90;;;;;;4988478;28;20153;-73
2022/10/23 07:51:30;;;;;;;2.28;1.10;;;13.20;99.90;;;;;;4989923;28;20097;-73
2022/10/23 07:53:56;;;;;;;6.43;1.20;;;13.30;99.90;;;;;;4989267;28;20061;-73
2022/10/23 07:56:24;;;;;;;2.17;1.10;;;13.40;99.90;;;;;;4989693;28;20042;-72
2022/10/23 07:58:52;;;;;;;2.40;1.10;;;13.50;99.90;;;;;;4989582;28;20034;-73
2022/10/23 08:01:37;;;;;;;4.05;1.17;;;13.50;99.90;;;;;;4989328;28;20430;-73
2022/10/23 08:04:04;;;;;;;1.45;0.75;;;13.50;99.90;;;;;;4989625;28;20068;-73
2022/10/23 08:06:29;;;;;;;1.60;0.93;;;13.50;99.90;;;;;;4989336;28;20030;-72
2022/10/23 08:08:55;;;;;;;2.03;0.90;;;13.60;99.90;;;;;;4989385;28;20025;-72
2022/10/23 08:11:26;;;;;;;3.95;0.95;;;13.50;99.90;;;;;;4988979;28;20580;-73
2022/10/23 08:13:53;;;;;;;5.45;1.88;;;13.60;99.90;;;;;;4989228;28;20185;-72
2022/10/23 08:16:18;;;;;;;4.85;1.90;;;13.80;99.90;;;;;;4988812;28;20061;-72
2022/10/23 08:18:44;;;;;;;3.85;1.50;;;13.70;99.90;;;;;;4989044;28;20034;-72
2022/10/23 08:21:10;;;;;;;5.57;1.70;;;13.50;99.90;;;;;;4990009;28;20029;-72
2022/10/23 08:23:36;;;;;;;4.32;1.63;;;13.50;99.90;;;;;;4992313;28;20385;-72
2022/10/23 08:26:04;;;;;;;4.55;1.42;;;13.50;99.90;;;;;;4992286;28;20026;-72
2022/10/23 08:28:30;;;;;;;3.30;1.40;;;13.60;99.90;;;;;;4992236;28;20050;-72
2022/10/23 08:30:56;;;;;;;2.92;1.23;;;13.60;99.90;;;;;;4991943;28;20026;-72
2022/10/23 08:33:22;;;;;;;1.92;0.93;;;13.70;99.90;;;;;;4991037;28;20552;-73
2022/10/23 08:35:48;;;;;;;2.65;1.33;;;13.80;99.90;;;;;;4988963;28;20250;-72
2022/10/23 08:38:14;;;;;;;4.50;1.35;;;13.80;99.90;;;;;;4989160;28;20369;-73
2022/10/23 08:40:46;;;;;;;3.05;1.20;;;13.70;99.90;;;;;;4991792;28;20037;-72
2022/10/23 08:43:20;;;;;;;3.55;1.20;;;13.70;99.90;;;;;;4991579;28;20026;-72
2022/10/23 08:46:00;;;;;;;3.30;1.02;;;13.80;99.90;;;;;;4991601;28;20113;-73
2022/10/23 08:48:40;;;;;;;2.10;1.08;;;14.00;99.90;;;;;;4991941;28;20049;-73
2022/10/23 08:51:23;;;;;;;2.45;1.10;;;14.00;99.90;;;;;;4991877;28;20038;-73
2022/10/23 08:53:49;;;;;;;1.83;0.80;;;14.20;99.90;;;;;;4991493;28;20050;-73
2022/10/23 08:56:26;;;;;;;4.13;1.05;;;14.30;99.90;;;;;;4991519;28;20030;-72
2022/10/23 08:59:19;;;;;;;3.40;1.15;;;14.40;99.90;;;;;;4991743;28;20041;-73
2022/10/23 09:01:50;;;;;;;2.85;1.23;;;14.50;99.90;;;;;;4991522;28;20497;-72
2022/10/23 09:04:16;;;;;;;2.72;0.98;;;14.60;99.90;;;;;;4991455;28;20497;-73
2022/10/23 09:06:57;;;;;;;5.45;1.45;;;14.70;99.90;;;;;;4991289;28;20104;-72
2022/10/23 09:09:26;;;;;;;3.20;1.20;;;14.70;99.90;;;;;;4991353;28;20033;-72
2022/10/23 09:12:20;;;;;;;3.28;1.40;;;14.70;99.90;;;;;;4991636;28;20031;-73
2022/10/23 09:15:07;;;;;;;3.00;1.33;;;14.80;99.90;;;;;;4991302;28;20063;-72
2022/10/23 09:17:37;;;;;;;3.47;1.73;;;14.60;99.90;;;;;;4991261;28;20050;-72
2022/10/23 09:20:28;;;;;;;2.85;1.10;;;14.70;99.90;;;;;;4991177;28;20057;-72
2022/10/23 09:22:58;;;;;;;2.45;1.33;;;14.80;99.90;;;;;;4991214;28;20030;-72
2022/10/23 09:25:30;;;;;;;2.80;1.40;;;14.70;99.90;;;;;;4991392;28;20026;-72
2022/10/23 09:27:58;;;;;;;4.22;1.20;;;14.60;99.90;;;;;;4988512;28;20026;-72
2022/10/23 09:30:35;;;;;;;2.47;1.25;;;14.70;99.90;;;;;;4987816;28;20033;-73
2022/10/23 09:33:13;;;;;;;4.50;1.40;;;14.70;99.90;;;;;;4987543;28;20065;-72
2022/10/23 09:35:51;;;;;;;4.32;1.30;;;14.70;99.90;;;;;;4987851;28;20104;-73
2022/10/23 09:38:38;;;;;;;2.47;0.77;;;14.60;99.90;;;;;;4987670;28;20088;-73
2022/10/23 09:41:20;;;;;;;4.63;1.10;;;14.70;99.90;;;;;;4987588;28;20031;-72
2022/10/23 09:43:46;;;;;;;1.98;0.98;;;14.80;99.90;;;;;;4987721;28;20026;-72
2022/10/23 09:46:12;;;;;;;1.55;0.75;;;14.70;99.90;;;;;;4987277;28;20037;-72
2022/10/23 09:48:41;;;;;;;3.90;0.98;;;14.80;99.90;;;;;;4987287;28;20555;-72
2022/10/23 09:51:20;;;;;;;1.10;0.73;;;14.90;99.90;;;;;;4988796;28;20037;-72
2022/10/23 09:53:59;;;;;;;2.65;0.90;;;14.90;99.90;;;;;;4990425;28;20034;-73
2022/10/23 09:56:39;;;;;;;3.60;0.90;;;15.00;99.90;;;;;;4989710;28;20065;-73
2022/10/23 09:59:15;;;;;;;1.85;0.98;;;15.00;99.90;;;;;;4987109;28;20466;-72
2022/10/23 10:01:51;;;;;;;2.03;1.00;;;14.90;99.90;;;;;;4987326;28;20038;-73
2022/10/23 10:04:17;;;;;;;1.38;0.70;;;15.00;99.90;;;;;;4987332;28;20134;-72
2022/10/23 10:06:44;;;;;;;5.53;1.17;;;15.20;99.90;;;;;;4986893;28;20081;-73
2022/10/23 10:09:15;;;;;;;2.97;1.23;;;15.20;99.90;;;;;;4986721;28;20036;-72
2022/10/23 10:11:46;;;;;;;7.10;3.67;;;15.20;99.90;;;;;;4986644;28;20034;-73
2022/10/23 10:14:50;;;;;;;2.05;1.23;;;15.30;99.90;;;;;;4987302;28;20034;-72
2022/10/23 10:17:49;;;;;;;4.13;1.10;;;15.30;99.90;;;;;;4986838;28;20061;-73
2022/10/23 10:20:23;;;;;;;2.97;1.30;;;15.20;99.90;;;;;;4986876;28;20034;-72
2022/10/23 10:22:59;;;;;;;;;;;15.40;99.90;;;;;;4987169;28;20022;-72
2022/10/23 10:25:52;;;;;;;4.10;1.42;;;15.50;99.90;;;;;;4987245;28;19905;-72
2022/10/23 10:28:55;;;;;;;3.17;1.50;;;15.40;99.90;;;;;;4986962;28;20033;-73
2022/10/23 10:31:35;;;;;;;3.90;1.45;;;15.60;99.90;;;;;;4987233;28;20026;-72
2022/10/23 10:34:05;;;;;;;1.98;1.10;;;15.50;99.90;;;;;;4986682;28;20039;-72
2022/10/23 10:36:34;;;;;;;4.05;1.70;;;15.40;99.90;;;;;;4986456;28;20085;-72
2022/10/23 10:39:02;;;;;;;3.20;1.40;;;15.40;99.90;;;;;;4986697;28;20107;-73
2022/10/23 10:42:01;;;;;;;2.67;1.25;;;15.40;99.90;;;;;;4986980;28;20037;-72
2022/10/23 10:44:30;;;;;;;3.00;1.33;;;15.30;99.90;;;;;;4986418;28;20219;-73
2022/10/23 10:46:56;;;;;;;2.70;1.27;;;15.30;99.90;;;;;;4986405;28;20058;-73
2022/10/23 10:49:28;;;;;;;2.92;1.60;;;15.40;99.90;;;;;;4986582;28;20030;-72
2022/10/23 10:52:06;;;;;;;9.02;6.22;;;15.50;99.90;;;;;;4986644;28;20505;-73
2022/10/23 10:54:47;;;;;;;4.45;2.80;;;15.50;99.90;;;;;;4986537;28;20046;-72
2022/10/23 10:57:44;;;;;;;4.25;2.35;;;15.60;99.90;;;;;;4986226;28;20022;-72
2022/10/23 11:00:19;;;;;;;3.63;1.88;;;15.70;99.90;;;;;;4984484;28;20129;-72
2022/10/23 11:02:58;;;;;;;2.78;1.35;;;15.80;99.90;;;;;;4986488;28;20026;-73
2022/10/23 11:05:28;;;;;;;3.63;1.10;;;15.80;99.90;;;;;;4986661;28;20117;-73
2022/10/23 11:08:17;;;;;;;5.82;2.00;;;15.70;99.90;;;;;;4986521;28;20027;-72
2022/10/23 11:10:51;;;;;;;2.15;1.20;;;15.80;99.90;;;;;;4986011;28;20022;-73
2022/10/23 11:13:26;;;;;;;2.55;1.30;;;15.80;99.90;;;;;;4987347;28;20374;-73
2022/10/23 11:15:57;;;;;;;3.65;1.17;;;15.90;99.90;;;;;;4988858;28;20172;-72
2022/10/23 11:18:27;;;;;;;4.32;1.25;;;16.10;99.90;;;;;;4989300;28;20546;-72
2022/10/23 11:21:16;;;;;;;6.60;1.40;;;16.10;99.90;;;;;;4989196;28;20027;-72
2022/10/23 11:24:12;;;;;;;3.75;1.13;;;16.10;99.90;;;;;;4991434;28;20030;-73
2022/10/23 11:26:53;;;;;;;2.33;1.08;;;16.00;99.90;;;;;;4993484;28;20053;-72
2022/10/23 11:29:40;;;;;;;2.75;1.40;;;16.20;99.90;;;;;;4993431;28;20089;-72
2022/10/23 11:32:42;;;;;;;2.33;1.00;;;16.30;99.90;;;;;;4993152;28;20449;-72
2022/10/23 11:35:20;;;;;;;3.85;1.30;;;16.30;99.90;;;;;;4992910;28;20054;-72
2022/10/23 11:38:16;;;;;;;2.97;1.40;;;16.50;99.90;;;;;;4992935;28;20023;-72
2022/10/23 11:41:04;;;;;;;2.05;0.93;;;16.60;99.90;;;;;;4992640;28;20053;-73
2022/10/23 11:43:46;;;;;;;2.35;0.95;;;16.50;99.90;;;;;;4992144;28;20042;-72
2022/10/23 11:46:13;;;;;;;2.75;1.23;;;16.50;99.90;;;;;;4992774;28;20054;-72
2022/10/23 11:48:42;;;;;;;2.53;1.08;;;16.50;99.90;;;;;;4992723;28;20045;-72
2022/10/23 11:51:28;;;;;;;4.05;1.90;;;16.40;99.90;;;;;;4992701;28;20054;-72
2022/10/23 11:54:10;;;;;;;4.20;1.90;;;16.40;99.90;;;;;;4992649;28;20035;-72
2022/10/23 11:57:08;;;;;;;3.92;1.30;;;16.50;99.90;;;;;;4990656;28;20054;-72
2022/10/23 11:59:51;;;;;;;3.85;1.33;;;16.50;99.90;;;;;;4988788;28;20116;-73
2022/10/23 12:02:37;;;;;;;3.42;1.10;;;16.40;99.90;;;;;;4989814;28;20294;-72
2022/10/23 12:05:26;;;;;;;5.35;1.30;;;16.40;99.90;;;;;;4989507;28;20026;-72
2022/10/23 12:07:59;;;;;;;2.00;1.10;;;16.30;99.90;;;;;;4989361;28;20497;-72
2022/10/23 12:10:33;;;;;;;2.35;1.08;;;16.30;99.90;;;;;;4989221;28;20505;-72
2022/10/23 12:13:04;;;;;;;2.67;0.93;;;16.20;99.90;;;;;;4989165;28;20027;-72
2022/10/23 12:15:31;;;;;;;2.28;1.02;;;16.30;99.90;;;;;;4989178;28;20551;-73
2022/10/23 12:18:14;;;;;;;2.40;1.05;;;16.30;99.90;;;;;;4989398;28;20050;-72
2022/10/23 12:20:56;;;;;;;2.10;1.00;;;16.50;99.90;;;;;;4989253;28;20035;-73
2022/10/23 12:23:37;;;;;;;2.30;1.05;;;16.50;99.90;;;;;;4988758;28;20504;-72
2022/10/23 12:26:40;;;;;;;4.60;1.48;;;16.50;99.90;;;;;;4989329;28;20114;-72
2022/10/23 12:29:25;;;;;;;2.33;0.95;;;16.50;99.90;;;;;;4989275;28;20493;-72
2022/10/23 12:31:55;;;;;;;;;;;16.50;99.90;;;;;;4989680;28;20026;-72
2022/10/23 12:34:47;;;;;;;4.68;1.10;;;16.50;99.90;;;;;;4988439;28;19914;-72
2022/10/23 12:37:53;;;;;;;3.55;1.08;;;16.30;99.90;;;;;;4987441;28;20129;-73
2022/10/23 12:40:19;;;;;;;3.10;1.55;;;16.50;99.90;;;;;;5003832;28;20449;-72
2022/10/23 12:42:53;;;;;;;4.05;1.33;;;16.70;99.90;;;;;;4989189;28;20034;-72
2022/10/23 12:45:22;;;;;;;;;;;16.70;99.90;;;;;;4989039;28;20034;-72
2022/10/23 12:47:49;;;;;;;3.10;1.10;;;16.90;99.90;;;;;;4988827;28;19910;-71
2022/10/23 12:50:19;;;;;;;2.38;1.20;;;16.90;99.90;;;;;;4988652;28;20027;-72
2022/10/23 12:52:55;;;;;;;3.28;1.30;;;16.90;99.90;;;;;;4988742;28;20038;-72
2022/10/23 12:55:22;;;;;;;3.38;1.10;;;17.00;99.90;;;;;;4988878;28;20041;-73
2022/10/23 12:57:48;;;;;;;3.50;1.52;;;17.10;99.90;;;;;;4989213;28;20026;-72
2022/10/23 13:00:18;;;;;;;3.13;1.30;;;17.10;99.90;;;;;;4988029;28;20015;-72
2022/10/23 13:02:44;;;;;;;3.03;1.27;;;16.90;99.90;;;;;;4988163;28;20436;-72
2022/10/23 13:05:15;;;;;;;3.08;1.13;;;17.00;99.90;;;;;;4988221;28;20033;-72
2022/10/23 13:07:46;;;;;;;2.60;1.00;;;17.00;99.90;;;;;;4988300;28;20121;-73
2022/10/23 13:10:17;;;;;;;3.75;1.15;;;17.00;99.90;;;;;;4988227;28;20022;-72
2022/10/23 13:12:55;;;;;;;2.90;1.10;;;16.90;99.90;;;;;;4988261;28;20038;-71